Time;durP1;ratioP1;P1;durP2;ratioP2;P2;SDS_P1;SDS_P2;PMS_P1;PMS_P2;Temp;Humidity;BMP_temperature;BMP_pressure;BME280_temperature;BME280_humidity;BME280_pressure;Samples;Min_cycle;Max_cycle;Signal;HPM_P1;HPM_P2
2021/12/05 00:17:48;;;;;;;60.15;28.73;;;;;;;-3.37;86.91;99024.33;1650606;84;22399;-63
2021/12/05 00:22:58;;;;;;;53.40;27.35;;;;;;;-3.37;86.96;99019.45;1643720;84;21586;-63
2021/12/05 00:25:28;;;;;;;60.17;27.55;;;;;;;-3.42;87.06;99021.00;1638132;85;21189;-62
2021/12/05 00:36:56;;;;;;;66.30;31.00;;;;;;;-3.47;87.49;99022.25;1657856;84;21170;-63
2021/12/05 00:41:43;;;;;;;58.55;29.42;;;;;;;-3.49;87.51;99018.97;1658379;84;21077;-64
2021/12/05 01:10:55;;;;;;;70.25;33.88;;;;;;;-3.63;86.81;99052.09;1601049;87;21073;-66
2021/12/05 01:15:53;;;;;;;66.20;31.50;;;;;;;-3.70;86.85;99050.88;1664028;84;21012;-65
2021/12/05 01:18:20;;;;;;;67.60;32.33;;;;;;;-3.67;87.08;99053.64;1638268;85;21110;-62
2021/12/05 01:20:55;;;;;;;70.32;33.10;;;;;;;-3.65;87.15;99056.09;1662290;84;22534;-64
2021/12/05 01:23:34;;;;;;;66.42;32.35;;;;;;;-3.65;87.19;99055.54;1663126;84;21194;-63
2021/12/05 01:26:04;;;;;;;65.00;32.13;;;;;;;-3.66;87.15;99059.30;1665185;84;21094;-64
2021/12/05 01:34:11;;;;;;;62.88;30.92;;;;;;;-3.61;87.48;99053.20;1640298;84;21163;-66
2021/12/05 01:36:40;;;;;;;55.45;28.55;;;;;;;-3.60;87.48;99051.61;1622821;86;21020;-62
2021/12/05 01:42:09;;;;;;;51.18;26.20;;;;;;;-3.62;87.33;99051.57;1612647;86;21185;-62
2021/12/05 02:30:25;;;;;;;42.45;23.10;;;;;;;-3.79;87.15;99055.00;1636097;85;21080;-63
2021/12/05 02:33:00;;;;;;;49.10;25.12;;;;;;;-3.83;87.18;99053.30;1604127;87;21077;-62
2021/12/05 02:35:38;;;;;;;48.85;25.30;;;;;;;-3.85;87.22;99051.88;1603618;87;21538;-63
2021/12/05 02:38:11;;;;;;;45.28;23.55;;;;;;;-3.85;87.34;99046.50;1612581;87;21560;-61
2021/12/05 02:43:12;;;;;;;51.28;25.60;;;;;;;-3.84;87.42;99040.08;1649897;85;21561;-62
2021/12/05 02:45:41;;;;;;;35.50;19.25;;;;;;;-3.85;87.32;99042.46;1605710;86;21669;-61
2021/12/05 02:48:10;;;;;;;56.83;25.10;;;;;;;-3.87;87.46;99035.17;1646802;84;21024;-64
2021/12/05 02:50:37;;;;;;;49.93;27.22;;;;;;;-3.85;87.38;99026.30;1630752;86;21067;-64
2021/12/05 02:53:27;;;;;;;50.50;25.10;;;;;;;-3.85;87.35;99025.78;1659209;84;21499;-62
2021/12/05 02:55:49;;;;;;;51.48;25.70;;;;;;;-3.85;87.34;99026.30;1669811;84;20995;-65
2021/12/05 03:03:21;;;;;;;49.23;24.20;;;;;;;-3.86;87.56;99011.22;1620317;86;21080;-67
2021/12/05 03:05:53;;;;;;;43.35;24.70;;;;;;;-3.91;87.53;99007.34;1602300;87;21517;-62
2021/12/05 03:08:19;;;;;;;39.73;22.58;;;;;;;-3.88;87.64;99016.02;1621133;86;21535;-63
2021/12/05 03:10:46;;;;;;;49.77;24.92;;;;;;;-3.86;87.76;99008.52;1623844;86;21299;-61
2021/12/05 03:13:13;;;;;;;47.13;23.07;;;;;;;-3.85;87.77;99006.94;1626543;86;21068;-64
2021/12/05 03:15:39;;;;;;;49.83;24.70;;;;;;;-3.85;87.78;98988.61;1666169;84;21076;-63
2021/12/05 03:18:07;;;;;;;44.40;23.57;;;;;;;-3.84;87.79;98986.22;1632633;86;21591;-64
2021/12/05 03:20:34;;;;;;;44.05;23.40;;;;;;;-3.82;87.83;98983.56;1666947;84;21010;-61
2021/12/05 03:23:00;;;;;;;38.90;22.32;;;;;;;-3.85;87.61;98980.53;1650524;84;21048;-61
2021/12/05 03:25:27;;;;;;;51.02;23.40;;;;;;;-3.88;87.57;98976.45;1677746;84;21103;-66
2021/12/05 03:27:55;;;;;;;53.00;23.75;;;;;;;-3.90;87.68;98973.17;1653761;85;21050;-62
2021/12/05 03:30:24;;;;;;;42.45;22.77;;;;;;;-3.91;87.77;98975.03;1593498;88;21077;-62
2021/12/05 03:32:52;;;;;;;41.85;22.20;;;;;;;-3.90;87.94;98967.78;1614595;87;21013;-62
2021/12/05 03:35:21;;;;;;;42.10;22.85;;;;;;;-3.92;88.04;98966.68;1610156;87;21040;-63
2021/12/05 03:37:48;;;;;;;46.13;24.80;;;;;;;-3.93;88.07;98973.13;1637959;86;21070;-61
2021/12/05 03:40:18;;;;;;;50.28;26.42;;;;;;;-3.90;88.25;98973.17;1680930;84;21075;-64
2021/12/05 03:42:48;;;;;;;49.83;25.97;;;;;;;-3.86;88.39;98969.48;1672510;84;21206;-63
2021/12/05 03:45:19;;;;;;;54.75;28.83;;;;;;;-3.80;88.44;98969.86;1622559;86;21096;-61
2021/12/05 03:47:47;;;;;;;54.42;28.62;;;;;;;-3.78;88.33;98971.80;1665545;84;21060;-61
2021/12/05 03:50:13;;;;;;;44.45;24.07;;;;;;;-3.80;88.11;98979.29;1624643;86;21043;-61
2021/12/05 03:52:42;;;;;;;53.02;28.15;;;;;;;-3.85;88.00;98972.45;1662787;84;21691;-61
2021/12/05 03:55:10;;;;;;;54.05;26.87;;;;;;;-3.92;87.93;98966.68;1644499;84;21172;-61
2021/12/05 03:57:36;;;;;;;49.65;26.77;;;;;;;-3.97;87.96;98969.27;1674939;84;21040;-63
2021/12/05 04:00:12;;;;;;;52.25;27.32;;;;;;;-3.98;87.94;98968.16;1646079;84;21253;-61
2021/12/05 04:02:41;;;;;;;48.38;24.12;;;;;;;-4.02;88.03;98970.50;1636990;85;21062;-61
2021/12/05 04:05:09;;;;;;;60.05;28.85;;;;;;;-4.06;88.02;98967.46;1641665;85;21045;-61
2021/12/05 04:07:35;;;;;;;55.28;28.30;;;;;;;-4.08;88.09;98969.59;1635506;84;21207;-60
2021/12/05 04:10:05;;;;;;;52.65;28.45;;;;;;;-4.10;88.11;98963.63;1672144;84;21112;-62
2021/12/05 04:12:35;;;;;;;54.10;27.48;;;;;;;-4.13;88.05;98982.94;1671763;84;21115;-61
2021/12/05 04:15:03;;;;;;;49.60;25.88;;;;;;;-4.17;88.06;98987.97;1666712;84;21099;-61
2021/12/05 04:17:30;;;;;;;52.10;27.00;;;;;;;-4.16;88.28;98986.08;1658313;84;21098;-63
2021/12/05 04:19:56;;;;;;;55.98;26.40;;;;;;;-4.17;88.31;98989.31;1664895;84;21255;-63
2021/12/05 04:22:25;;;;;;;43.68;24.18;;;;;;;-4.17;88.25;98989.84;1677494;84;21091;-63
2021/12/05 04:24:52;;;;;;;47.85;24.00;;;;;;;-4.21;88.17;98995.38;1648561;85;21004;-64
2021/12/05 04:27:19;;;;;;;52.15;24.95;;;;;;;-4.26;88.22;98997.44;1638221;85;21079;-62
2021/12/05 04:29:46;;;;;;;50.58;25.77;;;;;;;-4.30;88.16;98999.78;1651140;84;21094;-63
2021/12/05 04:32:12;;;;;;;50.45;25.70;;;;;;;-4.32;88.17;99005.94;1568998;88;21222;-65
2021/12/05 04:34:40;;;;;;;52.03;25.62;;;;;;;-4.33;88.20;99006.98;1639781;86;21107;-63
2021/12/05 04:37:07;;;;;;;47.10;24.85;;;;;;;-4.31;88.29;99008.09;1661341;84;21053;-66
2021/12/05 04:39:37;;;;;;;46.73;23.60;;;;;;;-4.32;88.23;99006.46;1645062;84;21564;-64
2021/12/05 04:42:04;;;;;;;44.45;21.93;;;;;;;-4.32;88.29;99001.91;1628624;85;21112;-64
2021/12/05 04:44:31;;;;;;;44.75;24.07;;;;;;;-4.30;88.28;99003.02;1644897;85;21114;-63
2021/12/05 04:47:01;;;;;;;44.00;22.67;;;;;;;-4.30;88.33;98999.78;1603632;87;21143;-64
2021/12/05 04:49:28;;;;;;;47.48;23.50;;;;;;;-4.30;88.30;99003.02;1591790;88;21201;-64
2021/12/05 04:51:55;;;;;;;43.42;22.45;;;;;;;-4.30;88.39;99000.33;1589500;89;21150;-65
2021/12/05 04:54:23;;;;;;;45.03;23.32;;;;;;;-4.28;88.45;98998.20;1604800;87;21070;-63
2021/12/05 04:56:50;;;;;;;46.23;23.22;;;;;;;-4.26;88.47;99004.72;1588923;87;21267;-62
2021/12/05 04:59:19;;;;;;;34.90;20.10;;;;;;;-4.25;88.54;99013.07;1624729;86;21065;-62
2021/12/05 05:01:50;;;;;;;46.60;23.02;;;;;;;-4.26;88.49;99014.14;1625123;85;21529;-63
2021/12/05 05:04:26;;;;;;;42.48;22.15;;;;;;;-4.28;88.47;99019.72;1660412;84;21059;-63
2021/12/05 05:06:51;;;;;;;41.05;23.80;;;;;;;-4.28;88.52;99021.07;1643472;86;21111;-63
2021/12/05 05:09:18;;;;;;;48.25;22.60;;;;;;;-4.27;88.46;99026.77;1629167;85;21173;-65
2021/12/05 05:11:45;;;;;;;49.23;25.55;;;;;;;-4.25;88.40;99035.94;1672582;84;21517;-61
2021/12/05 05:14:13;;;;;;;46.95;23.87;;;;;;;-4.27;88.18;99029.45;1630344;86;21063;-63
2021/12/05 05:16:41;;;;;;;45.20;25.35;;;;;;;-4.32;88.03;99027.47;1667708;84;21571;-66
2021/12/05 05:19:11;;;;;;;62.17;36.95;;;;;;;-4.34;87.89;99028.73;1613573;86;21044;-66
2021/12/05 05:27:09;;;;;;;62.45;41.35;;;;;;;-4.47;87.68;99027.11;1660936;84;21068;-62
2021/12/05 05:29:37;;;;;;;55.30;37.67;;;;;;;-4.47;87.82;99023.87;1635412;86;21031;-65
2021/12/05 05:50:13;;;;;;;29.23;18.10;;;;;;;-4.50;87.88;99007.40;1667376;84;21065;-62
2021/12/05 05:52:40;;;;;;;40.33;22.13;;;;;;;-4.50;87.94;99012.23;1671039;83;21099;-67
2021/12/05 05:55:07;;;;;;;38.25;20.60;;;;;;;-4.52;87.95;99017.84;1665662;84;21162;-65
2021/12/05 05:57:55;;;;;;;36.70;18.92;;;;;;;-4.50;88.10;99010.89;1657891;85;21080;-63
2021/12/05 06:00:16;;;;;;;34.30;17.62;;;;;;;-4.48;88.04;99007.45;1661574;84;21858;-64
2021/12/05 06:05:30;;;;;;;37.23;19.67;;;;;;;-4.46;88.05;99031.42;1665671;84;21509;-61
2021/12/05 06:07:56;;;;;;;39.75;20.50;;;;;;;-4.44;88.08;99024.77;1624186;85;21020;-61
2021/12/05 06:10:27;;;;;;;40.38;21.77;;;;;;;-4.41;88.02;99029.68;1643914;84;21177;-66
2021/12/05 06:12:54;;;;;;;35.35;20.62;;;;;;;-4.36;88.06;99026.28;1667435;84;21828;-67
2021/12/05 06:15:26;;;;;;;48.15;22.87;;;;;;;-4.32;88.03;99026.13;1613540;86;21083;-62
2021/12/05 06:17:54;;;;;;;38.45;21.40;;;;;;;-4.31;87.84;99026.41;1656420;84;21076;-63
2021/12/05 06:20:25;;;;;;;40.00;22.42;;;;;;;-4.29;87.73;99021.61;1665381;84;21044;-63
2021/12/05 06:22:54;;;;;;;50.73;26.00;;;;;;;-4.25;87.70;99028.70;1632635;86;21080;-65
2021/12/05 06:25:25;;;;;;;42.53;22.20;;;;;;;-4.20;87.68;99033.37;1645186;86;21967;-63
2021/12/05 06:27:54;;;;;;;47.73;24.52;;;;;;;-4.20;87.59;99033.37;1638579;86;21161;-66
2021/12/05 06:30:44;;;;;;;46.75;23.70;;;;;;;-4.20;87.58;99036.89;1635208;86;21046;-64
2021/12/05 06:41:34;;;;;;;41.85;22.07;;;;;;;-4.04;87.46;99054.71;1622703;86;21111;-64
2021/12/05 06:46:27;;;;;;;42.30;23.52;;;;;;;-4.02;87.12;99055.30;1640590;86;21087;-65
2021/12/05 06:48:53;;;;;;;45.63;23.00;;;;;;;-3.98;87.05;99059.17;1630047;86;21071;-61
2021/12/05 06:51:24;;;;;;;40.67;22.02;;;;;;;-3.95;87.11;99062.73;1635042;86;21093;-63
2021/12/05 06:53:50;;;;;;;45.67;23.80;;;;;;;-3.89;87.00;99063.68;1607662;87;21071;-63
2021/12/05 06:56:17;;;;;;;49.88;24.32;;;;;;;-3.86;86.86;99068.59;1649096;84;21179;-63
2021/12/05 06:58:43;;;;;;;47.85;22.37;;;;;;;-3.82;86.83;99074.33;1651562;84;21532;-61
2021/12/05 07:01:12;;;;;;;41.55;23.12;;;;;;;-3.79;86.79;99071.16;1591460;87;21079;-64
2021/12/05 07:03:42;;;;;;;48.30;24.82;;;;;;;-3.76;86.75;99073.38;1611362;87;21122;-64
2021/12/05 07:06:18;;;;;;;44.48;25.08;;;;;;;-3.73;86.51;99078.28;1618267;87;21084;-62
2021/12/05 07:08:43;;;;;;;44.20;24.32;;;;;;;-3.73;86.42;99077.45;1604650;87;21087;-63
2021/12/05 07:11:19;;;;;;;45.52;23.27;;;;;;;-3.70;86.51;99074.31;1626997;86;21126;-63
2021/12/05 07:18:47;;;;;;;40.65;24.07;;;;;;;-3.58;86.33;99078.30;1641942;84;21198;-65
2021/12/05 07:26:46;;;;;;;41.75;22.98;;;;;;;-3.39;86.16;99071.41;1648054;84;21079;-66
2021/12/05 07:40:26;;;;;;;47.83;24.67;;;;;;;-3.03;85.70;99068.08;1643155;84;21130;-66
2021/12/05 07:43:00;;;;;;;50.85;26.00;;;;;;;-2.92;85.84;99073.66;1666880;84;21570;-63
2021/12/05 07:45:36;;;;;;;48.25;26.50;;;;;;;-2.84;85.67;99082.19;1673294;84;21114;-63
2021/12/05 07:48:15;;;;;;;51.20;26.00;;;;;;;-2.75;85.43;99085.84;1638137;85;21108;-63
2021/12/05 07:50:49;;;;;;;47.88;25.12;;;;;;;-2.69;85.33;99080.30;1649835;84;21096;-65
2021/12/05 07:53:18;;;;;;;52.45;25.60;;;;;;;-2.61;85.02;99083.11;1652710;85;21001;-65
2021/12/05 07:55:43;;;;;;;50.28;26.75;;;;;;;-2.51;85.02;99091.94;1670463;84;21177;-64
2021/12/05 07:58:46;;;;;;;53.55;26.55;;;;;;;-2.39;85.01;99099.94;1674194;84;21079;-67
2021/12/05 08:01:14;;;;;;;50.50;25.97;;;;;;;-2.31;84.74;99097.38;1650212;84;21068;-63
2021/12/05 08:16:55;;;;;;;44.23;24.23;;;;;;;-1.87;83.07;99105.33;1653505;84;21167;-65
2021/12/05 08:19:22;;;;;;;51.20;24.87;;;;;;;-1.84;83.05;99103.48;1644450;84;21123;-62
2021/12/05 08:21:55;;;;;;;51.42;26.93;;;;;;;-1.72;83.18;99106.08;1611430;87;21181;-62
2021/12/05 08:24:17;;;;;;;45.45;25.02;;;;;;;-1.57;83.35;99106.86;1614727;87;21103;-62
2021/12/05 08:26:48;;;;;;;49.95;25.08;;;;;;;-1.39;83.03;99106.25;1597297;87;21604;-62
2021/12/05 08:29:14;;;;;;;44.38;24.23;;;;;;;-1.26;82.46;99102.34;1640784;86;21098;-65
2021/12/05 09:26:06;;;;;;;40.67;24.47;;;;;;;0.35;76.23;99081.30;1653772;84;21375;-62
2021/12/05 09:30:58;;;;;;;49.05;27.50;;;;;;;0.55;76.00;99072.98;1647287;84;21659;-67
2021/12/05 10:06:42;;;;;;;42.73;23.00;;;;;;;1.42;70.90;99077.56;1620379;86;21424;-66
2021/12/05 10:09:11;;;;;;;43.55;25.32;;;;;;;1.54;70.72;99093.60;1633241;86;21250;-62
2021/12/05 10:34:52;;;;;;;39.88;22.05;;;;;;;1.70;68.84;99095.80;1658203;84;21068;-62
2021/12/05 10:37:17;;;;;;;50.55;25.50;;;;;;;1.76;68.71;99103.39;1670987;84;21191;-62
2021/12/05 10:39:43;;;;;;;47.00;23.55;;;;;;;1.78;68.33;99105.30;1657449;84;21021;-62
2021/12/05 10:42:41;;;;;;;43.98;24.92;;;;;;;1.84;68.40;99103.41;1644808;84;21041;-63
2021/12/05 10:45:09;;;;;;;42.88;23.65;;;;;;;1.89;68.32;99100.16;1646288;84;21025;-64
2021/12/05 10:47:41;;;;;;;46.13;26.40;;;;;;;1.89;68.28;99091.19;1654892;84;21068;-62
2021/12/05 10:50:35;;;;;;;42.62;24.85;;;;;;;1.94;68.41;99090.61;1623895;86;21179;-62
2021/12/05 10:53:43;;;;;;;44.55;25.25;;;;;;;1.96;68.06;99094.45;1620211;87;21072;-65
2021/12/05 10:56:26;;;;;;;47.08;24.80;;;;;;;1.93;67.75;99097.69;1594060;87;21205;-65
2021/12/05 10:59:19;;;;;;;46.33;25.27;;;;;;;1.87;67.46;99091.45;1608180;87;21112;-63
2021/12/05 11:02:06;;;;;;;50.55;26.45;;;;;;;1.79;67.02;99096.08;1664633;84;21674;-66
2021/12/05 11:04:35;;;;;;;45.58;24.90;;;;;;;1.63;67.22;99085.20;1667125;84;21171;-62
2021/12/05 11:07:14;;;;;;;39.05;22.42;;;;;;;1.61;67.29;99083.83;1652319;85;21143;-61
2021/12/05 11:09:49;;;;;;;40.70;22.42;;;;;;;1.51;67.36;99083.28;1628022;85;21013;-64
2021/12/05 11:12:28;;;;;;;38.30;22.20;;;;;;;1.52;67.43;99076.22;1664809;84;21080;-64
2021/12/05 11:14:58;;;;;;;40.08;22.80;;;;;;;1.50;66.94;99078.95;1650719;84;21039;-64
2021/12/05 11:17:30;;;;;;;38.48;21.27;;;;;;;1.37;66.73;99070.23;1657424;84;21181;-64
2021/12/05 11:20:17;;;;;;;38.88;23.02;;;;;;;1.31;66.61;99064.54;1631362;85;21122;-64
2021/12/05 11:22:46;;;;;;;53.85;23.42;;;;;;;1.25;66.69;99061.52;1660490;84;21197;-64
2021/12/05 11:25:20;;;;;;;50.60;22.98;;;;;;;1.19;66.90;99060.72;1637813;84;21053;-63
2021/12/05 11:27:57;;;;;;;47.70;22.80;;;;;;;1.24;67.09;99058.02;1651237;84;21588;-64
2021/12/05 11:30:33;;;;;;;39.67;20.70;;;;;;;1.23;66.81;99055.57;1653285;84;21466;-66
2021/12/05 11:33:18;;;;;;;47.45;21.42;;;;;;;1.28;67.30;99064.52;1647575;83;21323;-65
2021/12/05 11:35:54;;;;;;;65.30;22.30;;;;;;;1.36;67.08;99069.98;1684157;83;21059;-62
2021/12/05 11:38:28;;;;;;;47.93;20.97;;;;;;;1.39;67.09;99057.22;1685729;83;21536;-63
2021/12/05 11:41:04;;;;;;;34.65;20.10;;;;;;;1.47;66.88;99066.71;1672380;83;21070;-62
2021/12/05 11:43:40;;;;;;;32.93;19.00;;;;;;;1.50;66.09;99066.17;1680749;83;21090;-62
2021/12/05 11:46:27;;;;;;;36.93;19.77;;;;;;;1.49;66.35;99069.16;1678782;83;21099;-63
2021/12/05 11:49:02;;;;;;;30.60;18.90;;;;;;;1.67;66.25;99066.47;1651437;84;21132;-65
2021/12/05 11:51:40;;;;;;;29.50;18.25;;;;;;;1.77;65.60;99059.67;1627203;86;21106;-63
2021/12/05 11:54:21;;;;;;;31.48;18.85;;;;;;;1.98;65.60;99055.55;1597395;87;21125;-62
2021/12/05 11:57:01;;;;;;;34.20;19.00;;;;;;;2.19;65.58;99054.16;1620626;86;21823;-63
2021/12/05 11:59:33;;;;;;;37.17;20.00;;;;;;;2.41;65.33;99048.40;1621900;85;21108;-64
2021/12/05 12:02:19;;;;;;;30.95;18.27;;;;;;;2.63;64.97;99048.59;1624964;86;21037;-66
2021/12/05 12:04:57;;;;;;;35.30;18.62;;;;;;;2.85;64.52;99050.69;1622571;87;21059;-66
2021/12/05 12:07:46;;;;;;;30.25;18.45;;;;;;;3.04;63.96;99046.75;1649442;86;21086;-63
2021/12/05 12:10:18;;;;;;;41.55;23.67;;;;;;;3.20;63.46;99052.11;1681905;82;22180;-63
2021/12/05 12:12:48;;;;;;;38.67;19.80;;;;;;;3.30;62.86;99052.04;1680784;83;21110;-63
2021/12/05 12:15:15;;;;;;;32.30;19.05;;;;;;;3.35;62.45;99052.01;1684902;83;21054;-63
2021/12/05 12:17:44;;;;;;;45.90;28.67;;;;;;;3.36;62.06;99057.70;1689220;83;21106;-66
2021/12/05 12:20:12;;;;;;;41.63;27.60;;;;;;;3.31;61.72;99061.83;1684051;83;20991;-63
2021/12/05 12:22:39;;;;;;;34.92;21.68;;;;;;;3.13;61.21;99065.49;1686819;82;21796;-65
2021/12/05 12:25:14;;;;;;;49.60;24.82;;;;;;;2.85;61.38;99063.72;1666172;84;21153;-63
2021/12/05 12:27:46;;;;;;;48.30;25.95;;;;;;;2.61;61.71;99067.66;1681857;83;21492;-66
2021/12/05 12:30:18;;;;;;;45.80;24.00;;;;;;;2.41;62.06;99060.64;1667674;83;21054;-64
2021/12/05 12:32:46;;;;;;;155.87;83.70;;;;;;;2.24;62.39;99062.84;1677233;83;21158;-63
2021/12/05 12:35:17;;;;;;;105.35;55.63;;;;;;;2.07;62.94;99069.41;1663543;84;21890;-63
2021/12/05 12:38:08;;;;;;;51.63;28.02;;;;;;;1.85;63.53;99068.34;1677160;84;22365;-63
2021/12/05 12:40:44;;;;;;;56.18;30.10;;;;;;;1.67;64.29;99063.19;1662312;85;21056;-63
2021/12/05 12:43:36;;;;;;;51.92;26.10;;;;;;;1.47;65.01;99066.71;1650579;84;21060;-63
2021/12/05 12:46:40;;;;;;;60.25;28.52;;;;;;;1.32;65.66;99068.34;1624943;85;21204;-63
2021/12/05 12:49:21;;;;;;;89.20;47.33;;;;;;;1.17;66.30;99071.84;1664028;84;22141;-63
2021/12/05 12:52:02;;;;;;;85.15;44.63;;;;;;;1.04;66.93;99066.94;1667659;84;21108;-65
2021/12/05 12:54:33;;;;;;;76.37;39.13;;;;;;;0.93;67.38;99069.61;1673125;82;21222;-62
2021/12/05 12:57:12;;;;;;;67.92;36.93;;;;;;;0.81;67.79;99070.38;1654836;84;21056;-63
2021/12/05 12:59:58;;;;;;;68.62;36.20;;;;;;;0.70;68.27;99074.97;1636441;86;21119;-65
2021/12/05 13:02:57;;;;;;;61.48;31.35;;;;;;;0.59;68.67;99075.45;1676006;83;21177;-61
2021/12/05 13:05:22;;;;;;;139.57;75.25;;;;;;;0.47;69.16;99077.02;1668578;83;21089;-64
2021/12/05 13:10:46;;;;;;;60.83;35.45;;;;;;;0.27;70.09;99088.05;1646188;85;21552;-63
2021/12/05 13:13:28;;;;;;;64.53;33.75;;;;;;;0.18;70.26;99088.24;1636853;84;21069;-64
2021/12/05 13:15:57;;;;;;;65.20;33.73;;;;;;;0.09;70.59;99090.09;1684688;82;21133;-62
2021/12/05 13:18:32;;;;;;;64.32;30.35;;;;;;;-0.03;70.81;99094.87;1674756;83;21112;-62
2021/12/05 13:21:15;;;;;;;59.20;30.30;;;;;;;-0.10;71.14;99094.30;1689028;83;21094;-62
2021/12/05 13:23:51;;;;;;;62.35;32.78;;;;;;;-0.19;71.27;99092.07;1653204;84;21008;-63
2021/12/05 13:26:39;;;;;;;64.67;33.25;;;;;;;-0.32;71.71;99090.59;1674746;82;21106;-63
2021/12/05 13:29:25;;;;;;;66.37;33.08;;;;;;;-0.36;72.12;99086.78;1678486;83;21176;-63
2021/12/05 13:31:56;;;;;;;65.45;33.38;;;;;;;-0.44;72.34;99085.87;1671555;83;20991;-63
2021/12/05 13:34:30;;;;;;;66.80;32.83;;;;;;;-0.55;72.60;99077.69;1659689;83;21102;-64
2021/12/05 13:37:13;;;;;;;61.98;33.75;;;;;;;-0.63;73.00;99086.25;1656632;84;21064;-64
2021/12/05 13:40:06;;;;;;;71.62;32.00;;;;;;;-0.71;73.32;99088.89;1646249;84;21217;-62
2021/12/05 13:42:42;;;;;;;67.67;34.03;;;;;;;-0.77;73.80;99098.05;1656669;84;24764;-64
2021/12/05 13:45:29;;;;;;;68.47;31.33;;;;;;;-0.85;74.10;99089.83;1655002;84;21059;-65
2021/12/05 13:48:04;;;;;;;71.37;36.42;;;;;;;-0.86;74.49;99094.45;1639308;84;21164;-65
2021/12/05 13:50:46;;;;;;;77.32;37.48;;;;;;;-0.89;74.62;99090.08;1683277;83;21201;-64
2021/12/05 13:53:19;;;;;;;71.53;34.40;;;;;;;-0.94;74.74;99095.43;1669645;83;21529;-62
2021/12/05 13:55:55;;;;;;;62.83;31.55;;;;;;;-1.01;75.00;99092.36;1674859;83;21159;-65
2021/12/05 13:58:41;;;;;;;60.88;31.33;;;;;;;-1.05;75.00;99099.37;1664431;84;21103;-63
2021/12/05 14:01:29;;;;;;;65.97;31.45;;;;;;;-1.11;75.05;99095.77;1668370;84;21054;-62
2021/12/05 14:04:23;;;;;;;57.83;28.60;;;;;;;-1.19;75.35;99100.80;1683896;84;21043;-62
2021/12/05 14:07:01;;;;;;;62.60;31.87;;;;;;;-1.21;75.57;99098.91;1671583;84;21063;-64
2021/12/05 14:09:47;;;;;;;63.55;30.75;;;;;;;-1.29;75.66;99109.09;1664412;84;21222;-64
2021/12/05 14:12:19;;;;;;;64.15;30.43;;;;;;;-1.35;75.90;99117.66;1661480;84;21031;-63
2021/12/05 14:15:02;;;;;;;58.92;30.75;;;;;;;-1.36;76.11;99121.97;1672946;84;22174;-63
2021/12/05 14:17:37;;;;;;;74.10;35.38;;;;;;;-1.34;76.26;99121.19;1663260;84;21052;-64
2021/12/05 14:20:14;;;;;;;75.47;35.33;;;;;;;-1.36;76.43;99130.08;1657900;84;21098;-66
2021/12/05 14:22:42;;;;;;;66.30;31.95;;;;;;;-1.36;76.56;99123.32;1676874;84;21846;-64
2021/12/05 14:25:13;;;;;;;71.87;36.55;;;;;;;-1.37;76.56;99124.40;1669353;84;21031;-64
2021/12/05 14:27:44;;;;;;;76.92;37.42;;;;;;;-1.50;76.54;99126.39;1625000;86;21060;-64
2021/12/05 14:30:16;;;;;;;79.30;36.45;;;;;;;-1.61;76.70;99134.08;1639450;84;21017;-63
2021/12/05 14:32:44;;;;;;;75.37;34.85;;;;;;;-1.67;77.06;99138.58;1670188;84;21052;-64
2021/12/05 14:35:15;;;;;;;66.15;32.13;;;;;;;-1.66;77.33;99138.88;1660806;84;21120;-64
2021/12/05 14:37:44;;;;;;;58.17;30.25;;;;;;;-1.63;77.43;99136.20;1670386;84;21029;-63
2021/12/05 14:40:15;;;;;;;58.00;29.20;;;;;;;-1.68;77.32;99130.73;1666504;84;21056;-64
2021/12/05 14:42:46;;;;;;;62.10;32.42;;;;;;;-1.75;77.50;99136.30;1671181;84;21059;-64
2021/12/05 14:45:24;;;;;;;62.08;30.37;;;;;;;-1.81;77.51;99137.30;1667974;84;21577;-64
2021/12/05 14:47:52;;;;;;;56.68;29.42;;;;;;;-1.85;77.76;99141.85;1673955;83;21128;-62
2021/12/05 14:50:30;;;;;;;62.05;30.32;;;;;;;-1.84;77.66;99148.88;1641902;84;21126;-63
2021/12/05 14:53:00;;;;;;;58.68;28.23;;;;;;;-1.89;77.73;99153.38;1645372;84;21089;-63
2021/12/05 14:55:28;;;;;;;59.30;30.12;;;;;;;-1.93;77.88;99160.34;1639807;85;21076;-64
2021/12/05 14:57:58;;;;;;;59.53;29.50;;;;;;;-2.00;77.84;99161.34;1642798;84;21068;-64
2021/12/05 15:00:41;;;;;;;60.70;29.37;;;;;;;-2.05;78.01;99162.61;1651337;84;21827;-65
2021/12/05 15:03:17;;;;;;;61.13;29.37;;;;;;;-2.07;78.17;99162.03;1639039;86;21108;-65
2021/12/05 15:05:50;;;;;;;67.87;33.02;;;;;;;-2.06;78.37;99162.30;1622026;86;21007;-66
2021/12/05 15:08:20;;;;;;;65.37;30.23;;;;;;;-2.04;78.43;99170.98;1631939;86;21108;-63
2021/12/05 15:10:54;;;;;;;66.77;32.60;;;;;;;-2.03;78.52;99178.02;1632832;86;21220;-64
2021/12/05 15:13:23;;;;;;;70.60;32.45;;;;;;;-2.04;78.56;99187.19;1624361;87;21169;-65
2021/12/05 15:15:51;;;;;;;73.92;33.90;;;;;;;-2.08;78.65;99193.61;1602240;86;21084;-63
2021/12/05 15:18:23;;;;;;;66.72;33.63;;;;;;;-2.20;78.71;99193.67;1635188;86;21091;-66
2021/12/05 15:20:52;;;;;;;;;;;;;;;-2.20;79.07;99196.38;1671332;84;21200;-68
2021/12/05 15:23:31;;;;;;;65.15;32.93;;;;;;;-2.22;78.86;99195.78;1662879;84;20170;-67
2021/12/05 15:26:02;;;;;;;73.33;34.98;;;;;;;-2.25;78.77;99200.33;1668644;84;21790;-65
2021/12/05 15:28:32;;;;;;;73.28;35.13;;;;;;;-2.31;78.77;99204.01;1678011;84;21060;-65
2021/12/05 15:31:02;;;;;;;77.87;36.05;;;;;;;-2.34;78.90;99205.30;1655469;83;21059;-65
2021/12/05 15:33:28;;;;;;;73.33;35.95;;;;;;;-2.36;78.97;99207.96;1652216;84;21095;-64
2021/12/05 15:35:58;;;;;;;69.65;32.30;;;;;;;-2.37;79.06;99207.13;1654988;85;21592;-65
2021/12/05 15:38:27;;;;;;;70.25;35.43;;;;;;;-2.33;79.09;99204.77;1663518;84;21173;-63
2021/12/05 15:40:57;;;;;;;82.92;35.98;;;;;;;-2.35;78.84;99203.67;1631129;85;21024;-63
2021/12/05 15:43:27;;;;;;;71.57;35.80;;;;;;;-2.42;78.82;99207.59;1642046;84;21108;-63
2021/12/05 15:45:56;;;;;;;75.45;36.65;;;;;;;-2.47;78.91;99204.24;1596796;87;21018;-66
2021/12/05 15:48:31;;;;;;;61.53;31.40;;;;;;;-2.47;79.17;99192.09;1598943;87;21107;-62
2021/12/05 15:50:58;;;;;;;77.87;34.27;;;;;;;-2.48;79.21;99184.55;1649403;84;21080;-65
2021/12/05 15:53:25;;;;;;;62.62;30.85;;;;;;;-2.46;79.40;99179.70;1640228;85;21485;-67
2021/12/05 15:55:57;;;;;;;71.02;34.08;;;;;;;-2.43;79.52;99183.82;1624327;86;21044;-63
2021/12/05 15:58:47;;;;;;;67.97;33.18;;;;;;;-2.39;79.51;99180.11;1659872;85;21082;-63
2021/12/05 16:01:22;;;;;;;73.80;34.15;;;;;;;-2.36;79.51;99172.35;1647320;85;21238;-64
2021/12/05 16:03:58;;;;;;;75.28;33.85;;;;;;;-2.34;79.49;99176.16;1663218;84;21102;-65
2021/12/05 16:06:34;;;;;;;65.30;30.75;;;;;;;-2.32;79.46;99169.98;1671052;84;21056;-66
2021/12/05 16:09:13;;;;;;;59.73;30.43;;;;;;;-2.30;79.46;99175.94;1661637;84;21076;-67
2021/12/05 16:11:44;;;;;;;59.50;28.12;;;;;;;-2.29;79.49;99163.27;1642238;84;21124;-64
2021/12/05 16:14:12;;;;;;;61.35;28.42;;;;;;;-2.27;79.38;99161.95;1613554;87;21067;-66
2021/12/05 16:16:39;;;;;;;58.83;30.25;;;;;;;-2.27;79.41;99164.66;1631393;86;21157;-63
2021/12/05 16:19:12;;;;;;;61.58;29.40;;;;;;;-2.29;79.24;99174.06;1633369;85;21050;-63
2021/12/05 16:21:39;;;;;;;65.30;30.63;;;;;;;-2.34;79.41;99170.75;1644986;84;22145;-66
2021/12/05 16:24:18;;;;;;;68.67;32.45;;;;;;;-2.33;79.55;99168.33;1641481;85;21011;-63
2021/12/05 16:26:48;;;;;;;75.90;34.60;;;;;;;-2.30;79.66;99153.55;1649934;84;21627;-65
2021/12/05 16:29:19;;;;;;;65.15;31.00;;;;;;;-2.28;79.62;99149.53;1631972;85;21581;-64
2021/12/05 16:31:53;;;;;;;65.12;31.02;;;;;;;-2.27;79.61;99149.80;1655291;84;20989;-65
2021/12/05 16:34:23;;;;;;;63.68;32.83;;;;;;;-2.26;79.56;99147.41;1669880;84;21066;-65
2021/12/05 16:37:02;;;;;;;77.67;33.20;;;;;;;-2.28;79.41;99153.58;1628616;86;21095;-64
2021/12/05 16:39:42;;;;;;;64.60;30.55;;;;;;;-2.29;79.50;99158.70;1666906;84;21154;-66
2021/12/05 16:42:15;;;;;;;68.95;30.90;;;;;;;-2.33;79.43;99151.62;1646503;85;21146;-67
2021/12/05 16:44:41;;;;;;;66.82;31.62;;;;;;;-2.33;79.54;99160.23;1641232;84;21022;-65
2021/12/05 16:47:14;;;;;;;71.87;31.52;;;;;;;-2.37;79.57;99168.00;1629979;86;21138;-65
2021/12/05 16:49:43;;;;;;;76.10;33.38;;;;;;;-2.40;79.65;99176.58;1618391;86;21058;-64
2021/12/05 16:52:22;;;;;;;66.65;31.73;;;;;;;-2.44;79.75;99183.55;1624362;84;21030;-63
2021/12/05 16:54:55;;;;;;;67.53;29.42;;;;;;;-2.46;79.90;99180.27;1646091;84;21269;-65